Time;durP1;ratioP1;P1;durP2;ratioP2;P2;SDS_P1;SDS_P2;PMS_P1;PMS_P2;Temp;Humidity;BMP_temperature;BMP_pressure;BME280_temperature;BME280_humidity;BME280_pressure;Samples;Min_cycle;Max_cycle;Signal;HPM_P1;HPM_P2
2023/10/07 00:01:22;;;;;;;12.07;5.40;;;307.40;2304.00;;;;;;5007318;28;20030;-81
2023/10/07 00:03:50;;;;;;;11.52;5.47;;;308.00;2304.00;;;;;;5005259;28;20022;-81
2023/10/07 00:06:17;;;;;;;14.60;6.05;;;307.30;2304.00;;;;;;5004786;28;20407;-81
2023/10/07 00:08:42;;;;;;;12.73;5.45;;;307.30;2304.00;;;;;;5024967;28;20032;-81
2023/10/07 00:11:11;;;;;;;13.55;5.63;;;307.20;2304.00;;;;;;5024597;28;20109;-79
2023/10/07 00:13:42;;;;;;;17.58;8.05;;;307.20;2304.00;;;;;;5019640;28;20023;-80
2023/10/07 00:16:10;;;;;;;18.58;10.10;;;307.20;2304.00;;;;;;4997542;28;20034;-80
2023/10/07 00:18:38;;;;;;;20.25;10.68;;;307.30;2304.00;;;;;;4996971;28;20101;-80
2023/10/07 00:21:04;;;;;;;20.65;10.43;;;307.30;2304.00;;;;;;4983260;28;20064;-80
2023/10/07 00:23:34;;;;;;;17.10;9.30;;;307.20;2304.00;;;;;;5009024;28;20109;-80
2023/10/07 00:26:00;;;;;;;20.25;9.75;;;282.50;2278.40;;;;;;5020127;28;20417;-79
2023/10/07 00:28:32;;;;;;;18.70;9.60;;;282.50;2278.40;;;;;;5004067;28;20076;-80
2023/10/07 00:31:22;;;;;;;20.42;9.82;;;307.20;2304.00;;;;;;5008365;28;20081;-80
2023/10/07 00:34:05;;;;;;;19.70;9.10;;;307.20;2304.00;;;;;;4982580;28;20057;-80
2023/10/07 00:39:07;;;;;;;17.75;9.02;;;307.40;2304.00;;;;;;5023902;28;20507;-81
2023/10/07 00:41:45;;;;;;;15.48;8.48;;;307.40;2304.00;;;;;;4992097;28;20018;-80
2023/10/07 00:44:22;;;;;;;16.40;8.02;;;307.40;2304.00;;;;;;4996407;28;20030;-79
2023/10/07 00:47:07;;;;;;;12.40;7.75;;;307.40;2304.00;;;;;;5008947;28;20049;-80
2023/10/07 00:49:42;;;;;;;15.02;7.60;;;307.40;2304.00;;;;;;5015798;28;20041;-80
2023/10/07 00:52:13;;;;;;;14.30;6.68;;;307.40;2304.00;;;;;;5015494;28;20024;-80
2023/10/07 00:54:50;;;;;;;13.32;6.40;;;307.40;2304.00;;;;;;5019937;28;20028;-81
2023/10/07 00:57:34;;;;;;;13.85;7.28;;;307.40;2304.00;;;;;;4995980;28;20488;-80
2023/10/07 01:00:04;;;;;;;;;;;307.40;2304.00;;;;;;5009493;28;20041;-80
2023/10/07 01:02:33;;;;;;;15.18;6.90;;;307.50;2304.00;;;;;;5011454;28;19941;-80
2023/10/07 01:05:13;;;;;;;11.70;5.22;;;307.50;2304.00;;;;;;4987804;28;20070;-80
2023/10/07 01:07:40;;;;;;;12.55;5.68;;;307.40;2304.00;;;;;;5006578;28;20039;-79
2023/10/07 01:12:56;;;;;;;9.70;4.28;;;282.40;2278.40;;;;;;5007011;28;20030;-79
2023/10/07 01:15:24;;;;;;;9.77;4.57;;;282.30;2278.40;;;;;;5014194;28;20032;-80
2023/10/07 01:17:53;;;;;;;10.30;4.95;;;282.20;2278.40;;;;;;5021307;28;20476;-80
2023/10/07 01:20:33;;;;;;;7.80;4.05;;;282.20;2278.40;;;;;;5007742;28;20022;-80
2023/10/07 01:23:03;;;;;;;10.25;4.20;;;282.00;2278.40;;;;;;5013989;28;20139;-79
2023/10/07 01:25:42;;;;;;;10.10;4.53;;;282.20;2278.40;;;;;;5009545;28;20030;-80
2023/10/07 01:28:08;;;;;;;11.00;4.60;;;282.30;2278.40;;;;;;5004182;28;20029;-80
2023/10/07 01:30:38;;;;;;;9.98;5.32;;;282.30;2278.40;;;;;;4996017;28;20052;-80
2023/10/07 01:33:34;;;;;;;10.88;4.90;;;282.30;2278.40;;;;;;5017229;28;20018;-80
2023/10/07 01:38:51;;;;;;;12.00;5.28;;;282.20;2278.40;;;;;;5019130;28;20069;-80
2023/10/07 01:41:18;;;;;;;10.52;4.82;;;282.10;2278.40;;;;;;5025800;28;20033;-79
2023/10/07 01:43:56;;;;;;;12.73;5.03;;;282.10;2278.40;;;;;;5029369;28;20041;-81
2023/10/07 01:50:11;;;;;;;15.70;6.60;;;282.10;2278.40;;;;;;5000008;28;20503;-80
2023/10/07 01:52:37;;;;;;;11.93;5.90;;;282.10;2278.40;;;;;;5008089;28;20105;-80
2023/10/07 01:55:08;;;;;;;12.40;6.50;;;282.00;2278.40;;;;;;4999966;28;20463;-80
2023/10/07 01:57:34;;;;;;;11.38;6.07;;;281.80;2278.40;;;;;;4985949;28;20034;-79
2023/10/07 02:00:07;;;;;;;11.93;6.43;;;281.70;2278.40;;;;;;4985835;28;20113;-79
2023/10/07 02:05:55;;;;;;;16.10;7.38;;;256.80;2252.80;;;;;;5012213;28;20041;-80
2023/10/07 02:08:22;;;;;;;16.55;7.88;;;256.80;2252.80;;;;;;5013444;28;20027;-79
2023/10/07 02:10:59;;;;;;;13.50;7.00;;;281.60;2278.40;;;;;;5008604;28;20342;-80
2023/10/07 02:13:29;;;;;;;16.40;7.75;;;256.90;2252.80;;;;;;4991766;28;20039;-80
2023/10/07 02:15:54;;;;;;;16.58;7.85;;;281.60;2278.40;;;;;;4993721;28;20395;-81
2023/10/07 02:18:22;;;;;;;14.10;7.50;;;281.60;2278.40;;;;;;5008827;28;20030;-80
2023/10/07 02:21:07;;;;;;;19.35;7.85;;;281.60;2278.40;;;;;;4990701;28;20030;-79
2023/10/07 02:26:06;;;;;;;20.42;9.32;;;256.80;2252.80;;;;;;4999166;28;20026;-80
2023/10/07 02:28:35;;;;;;;19.90;9.32;;;256.50;2073.60;;;;;;5021133;28;20034;-79
2023/10/07 02:31:09;;;;;;;17.90;9.65;;;256.60;2252.80;;;;;;4991258;28;20052;-80
2023/10/07 02:33:41;;;;;;;18.45;10.32;;;256.60;1996.80;;;;;;4992882;28;20030;-79
2023/10/07 02:36:21;;;;;;;22.45;11.77;;;307.30;2278.40;;;;;;5012789;28;20033;-80
2023/10/07 02:38:52;;;;;;;23.10;11.68;;;256.40;2252.80;;;;;;5005910;28;20046;-81
2023/10/07 02:41:20;;;;;;;25.05;12.00;;;256.30;2252.80;;;;;;4996463;28;20049;-79
2023/10/07 02:43:49;;;;;;;27.85;13.65;;;256.20;2252.80;;;;;;5006543;28;20109;-79
2023/10/07 02:50:44;;;;;;;28.23;12.75;;;256.10;2252.80;;;;;;5011125;28;20137;-80
2023/10/07 02:53:15;;;;;;;24.35;12.05;;;256.10;2252.80;;;;;;4985895;28;20041;-79
2023/10/07 02:55:48;;;;;;;26.98;12.38;;;256.00;2252.80;;;;;;5005675;28;20061;-80
2023/10/07 03:01:11;;;;;;;25.23;11.68;;;256.00;2252.80;;;;;;5014298;28;20067;-81
2023/10/07 03:03:47;;;;;;;22.70;11.50;;;256.10;2252.80;;;;;;5007247;28;20038;-80
2023/10/07 03:06:17;;;;;;;25.00;11.30;;;256.20;1920.00;;;;;;5014896;28;20053;-81
2023/10/07 03:08:56;;;;;;;20.73;10.57;;;256.30;2252.80;;;;;;5012999;28;20031;-80
2023/10/07 03:11:23;;;;;;;20.23;10.77;;;256.30;2252.80;;;;;;5014322;28;20459;-80
2023/10/07 03:13:57;;;;;;;22.50;10.30;;;256.40;2252.80;;;;;;5008755;28;20130;-78
2023/10/07 03:19:20;;;;;;;23.58;10.23;;;256.00;2252.80;;;;;;5022088;28;20026;-80
2023/10/07 03:24:13;;;;;;;20.73;10.20;;;231.30;2252.80;;;;;;5013960;28;20042;-81
2023/10/07 03:26:46;;;;;;;21.20;10.48;;;256.00;2252.80;;;;;;5019355;28;20026;-79
2023/10/07 03:29:30;;;;;;;20.20;10.13;;;256.00;2252.80;;;;;;5006849;28;20022;-80
2023/10/07 03:31:55;;;;;;;19.52;9.02;;;256.00;2252.80;;;;;;5019357;28;20045;-79
2023/10/07 03:34:21;;;;;;;19.73;9.10;;;256.10;2252.80;;;;;;5019096;28;20026;-80
2023/10/07 03:42:16;;;;;;;15.65;8.15;;;256.00;2252.80;;;;;;4995813;28;20062;-81
2023/10/07 03:44:42;;;;;;;15.43;8.10;;;230.90;2252.80;;;;;;4995257;28;20106;-80
2023/10/07 03:47:26;;;;;;;16.80;8.77;;;230.50;2252.80;;;;;;5012655;28;20030;-80
2023/10/07 03:49:58;;;;;;;18.65;8.80;;;230.50;1945.60;;;;;;4996977;28;20090;-79
2023/10/07 03:52:27;;;;;;;14.45;8.32;;;230.50;2252.80;;;;;;5032888;28;20033;-79
2023/10/07 03:54:54;;;;;;;18.35;9.10;;;230.50;2252.80;;;;;;5020169;28;20093;-81
2023/10/07 03:57:20;;;;;;;21.40;8.65;;;230.40;2252.80;;;;;;5016102;28;20022;-80
2023/10/07 03:59:46;;;;;;;20.80;8.68;;;205.70;2252.80;;;;;;5028007;28;20026;-79
2023/10/07 04:02:35;;;;;;;15.57;7.85;;;205.70;2252.80;;;;;;5019567;28;20049;-79
2023/10/07 04:05:12;;;;;;;16.55;7.93;;;205.60;2252.80;;;;;;5013913;28;20022;-78
2023/10/07 04:07:39;;;;;;;16.38;7.28;;;205.50;2252.80;;;;;;5016045;28;20026;-78
2023/10/07 04:10:36;;;;;;;15.30;7.32;;;205.70;2252.80;;;;;;5008837;28;20434;-79
2023/10/07 04:13:07;;;;;;;14.10;7.00;;;205.50;2252.80;;;;;;5014797;28;20086;-79
2023/10/07 04:15:51;;;;;;;16.77;7.57;;;205.50;2252.80;;;;;;4996694;28;20033;-79
2023/10/07 04:18:17;;;;;;;14.07;6.97;;;205.60;2252.80;;;;;;5009396;28;20061;-78
2023/10/07 04:21:07;;;;;;;13.38;7.05;;;205.70;2252.80;;;;;;5010855;28;20029;-79
2023/10/07 04:23:34;;;;;;;14.90;7.00;;;230.40;2252.80;;;;;;5009849;28;20033;-79
2023/10/07 04:26:08;;;;;;;15.10;7.53;;;230.50;2252.80;;;;;;5008538;28;20034;-78
2023/10/07 04:28:33;;;;;;;13.05;7.00;;;230.40;2252.80;;;;;;5006808;28;20030;-79
2023/10/07 04:31:03;;;;;;;15.32;7.35;;;205.70;2252.80;;;;;;5012112;28;20450;-78
2023/10/07 04:34:33;;;;;;;14.57;6.95;;;205.70;2252.80;;;;;;4998186;28;20028;-79
2023/10/07 04:42:36;;;;;;;31.73;15.10;;;205.50;2252.80;;;;;;4963605;28;20046;-80
2023/10/07 04:48:24;;;;;;;73.80;32.03;;;205.10;2252.80;;;;;;4944404;29;20038;-80
2023/10/07 04:51:03;;;;;;;55.72;27.33;;;205.10;2252.80;;;;;;4920347;29;20522;-79
2023/10/07 04:53:39;;;;;;;53.35;24.88;;;205.20;2252.80;;;;;;4904543;29;20045;-79
2023/10/07 04:56:10;;;;;;;51.80;22.70;;;205.40;2252.80;;;;;;4931656;29;20067;-79
2023/10/07 04:58:39;;;;;;;39.90;18.67;;;205.60;2252.80;;;;;;4924391;29;20134;-78
2023/10/07 05:01:22;;;;;;;40.92;17.73;;;205.60;2252.80;;;;;;4918706;29;20506;-79
2023/10/07 05:03:52;;;;;;;31.15;15.25;;;205.70;2252.80;;;;;;4917202;29;20040;-79
2023/10/07 05:06:18;;;;;;;39.45;17.08;;;205.70;2252.80;;;;;;4906750;29;20048;-78
2023/10/07 05:08:45;;;;;;;32.28;15.95;;;205.70;2252.80;;;;;;4920411;29;20119;-79
2023/10/07 05:11:17;;;;;;;30.23;14.57;;;230.40;2252.80;;;;;;4920855;29;20048;-79
2023/10/07 05:13:45;;;;;;;26.90;11.60;;;230.60;2252.80;;;;;;4923583;28;20478;-80
2023/10/07 05:16:15;;;;;;;23.08;12.07;;;230.70;2252.80;;;;;;4932694;29;20036;-79
2023/10/07 05:18:42;;;;;;;25.67;12.15;;;230.40;2252.80;;;;;;4920369;29;20040;-79
2023/10/07 05:21:11;;;;;;;30.30;11.93;;;205.70;2252.80;;;;;;4904291;29;20491;-80
2023/10/07 05:23:39;;;;;;;27.92;10.88;;;205.70;2252.80;;;;;;4939201;28;20066;-79
2023/10/07 05:26:08;;;;;;;23.20;11.15;;;230.40;2252.80;;;;;;5002416;28;20045;-79
2023/10/07 05:28:35;;;;;;;29.60;9.85;;;230.40;2252.80;;;;;;5006293;28;20031;-80
2023/10/07 05:31:04;;;;;;;27.05;10.98;;;231.20;2252.80;;;;;;4999922;28;20058;-80
2023/10/07 05:33:35;;;;;;;28.17;11.50;;;;;;;;;;5001891;28;20033;-78
2023/10/07 05:36:17;;;;;;;26.17;11.48;;;358.60;2329.60;;;;;;5001749;28;20030;-80
2023/10/07 05:38:45;;;;;;;24.55;11.38;;;384.90;2329.60;;;;;;5001458;28;20045;-79
2023/10/07 05:41:15;;;;;;;29.90;12.60;;;460.80;2380.80;;;;;;4992413;28;20026;-79
2023/10/07 05:43:48;;;;;;;28.52;12.30;;;;;;;;;;5001084;28;20034;-80
2023/10/07 05:46:19;;;;;;;32.13;14.02;;;;;;;;;;5001510;28;20034;-80
2023/10/07 05:48:48;;;;;;;29.52;12.82;;;;;;;;;;5002178;28;20080;-79
2023/10/07 05:51:16;;;;;;;27.05;12.77;;;614.70;1792.00;;;;;;5005662;28;20034;-80
2023/10/07 05:53:45;;;;;;;27.73;12.43;;;665.70;1612.80;;;;;;4998470;28;20034;-80
2023/10/07 05:56:11;;;;;;;32.40;13.85;;;666.30;1638.40;;;;;;4997151;28;20029;-80
2023/10/07 05:58:39;;;;;;;28.48;13.00;;;692.10;1459.20;;;;;;4996377;28;20057;-89
2023/10/07 06:01:06;;;;;;;31.73;14.18;;;;;;;;;;4997936;28;20037;-82
2023/10/07 06:03:36;;;;;;;28.88;12.55;;;717.30;1305.60;;;;;;4999930;28;20022;-83
2023/10/07 06:06:04;;;;;;;26.17;13.60;;;717.00;1331.20;;;;;;5001596;28;20514;-82
2023/10/07 06:08:32;;;;;;;33.50;15.77;;;691.50;1382.40;;;;;;5004655;28;20027;-80
2023/10/07 06:10:59;;;;;;;28.92;17.13;;;691.20;1382.40;;;;;;5001045;28;20034;-82
2023/10/07 06:13:27;;;;;;;29.73;14.95;;;691.80;1382.40;;;;;;4997544;28;20049;-81
2023/10/07 06:15:57;;;;;;;26.63;14.02;;;717.10;1356.80;;;;;;4997815;28;20034;-81
2023/10/07 06:18:26;;;;;;;27.50;13.02;;;717.10;1356.80;;;;;;5001859;28;20053;-82
2023/10/07 06:20:53;;;;;;;29.02;17.35;;;717.40;1356.80;;;;;;5004835;28;20109;-82
2023/10/07 06:23:20;;;;;;;31.80;18.08;;;743.10;1356.80;;;;;;5005138;28;20135;-82
2023/10/07 06:25:49;;;;;;;33.10;16.08;;;;;;;;;;5002363;28;20026;-82
2023/10/07 06:31:13;;;;;;;29.15;13.68;;;819.20;1228.80;;;;;;5010100;28;20443;-82
2023/10/07 06:34:12;;;;;;;24.55;12.50;;;819.80;1177.60;;;;;;5010593;28;20026;-82
2023/10/07 06:36:40;;;;;;;25.55;13.27;;;;;;;;;;5004193;28;20026;-82
2023/10/07 06:39:10;;;;;;;29.55;13.95;;;;;;;;;;5017182;28;20056;-80
2023/10/07 06:41:38;;;;;;;22.02;13.10;;;;;;;;;;5017350;28;20480;-82
2023/10/07 06:44:04;;;;;;;24.15;11.80;;;820.00;1152.00;;;;;;4999457;28;20030;-81
2023/10/07 06:46:44;;;;;;;30.17;11.13;;;819.20;1203.20;;;;;;5018295;28;20022;-82
2023/10/07 06:49:18;;;;;;;18.67;10.07;;;819.20;1228.80;;;;;;5007744;28;20025;-82
2023/10/07 06:51:56;;;;;;;22.55;9.98;;;794.00;1203.20;;;;;;5025412;28;20080;-86
2023/10/07 06:54:23;;;;;;;19.13;9.40;;;768.40;1254.40;;;;;;5022538;28;20091;-83
2023/10/07 06:56:54;;;;;;;21.88;9.25;;;;;;;;;;5007915;28;20018;-83
2023/10/07 06:59:27;;;;;;;29.02;9.27;;;819.60;1152.00;;;;;;5024722;28;20030;-84
2023/10/07 07:01:54;;;;;;;28.90;9.00;;;844.80;1152.00;;;;;;5007394;28;20041;-85
2023/10/07 07:04:22;;;;;;;19.33;9.15;;;845.50;1126.40;;;;;;5027243;28;20030;-84
2023/10/07 07:07:09;;;;;;;22.35;9.32;;;820.00;1126.40;;;;;;5025191;28;20490;-85
2023/10/07 07:12:16;;;;;;;23.23;9.27;;;;;;;;;;4998090;28;20027;-84
2023/10/07 07:14:50;;;;;;;17.15;9.25;;;845.30;1152.00;;;;;;4996562;28;20030;-84
2023/10/07 07:17:29;;;;;;;17.20;10.20;;;819.70;1126.40;;;;;;4979020;28;20022;-84
2023/10/07 07:22:47;;;;;;;17.23;8.52;;;820.00;1177.60;;;;;;4999169;28;20023;-84
2023/10/07 07:27:48;;;;;;;15.32;9.13;;;845.60;1075.20;;;;;;5003320;28;20030;-85
2023/10/07 07:30:36;;;;;;;13.57;9.07;;;820.00;1152.00;;;;;;5002366;28;20034;-84
2023/10/07 07:33:08;;;;;;;14.65;8.32;;;819.50;1203.20;;;;;;5002884;28;20038;-83
2023/10/07 07:35:45;;;;;;;18.33;8.40;;;;;;;;;;5000494;28;20030;-84
2023/10/07 07:40:49;;;;;;;12.38;6.65;;;794.10;1177.60;;;;;;4977329;28;20042;-84
2023/10/07 07:43:17;;;;;;;11.25;6.00;;;742.70;1305.60;;;;;;4990090;28;20026;-83
2023/10/07 07:45:46;;;;;;;10.23;4.78;;;742.50;1305.60;;;;;;4997732;28;20035;-84
2023/10/07 07:48:12;;;;;;;10.32;5.55;;;717.20;1254.40;;;;;;5001273;28;20026;-84
2023/10/07 07:50:40;;;;;;;10.90;5.43;;;717.30;1280.00;;;;;;4983853;28;20045;-85
2023/10/07 07:53:06;;;;;;;11.48;5.60;;;717.00;1305.60;;;;;;4993892;28;20030;-86
2023/10/07 07:55:44;;;;;;;8.77;4.60;;;717.30;1331.20;;;;;;4996498;28;20491;-84
2023/10/07 07:58:11;;;;;;;9.80;4.78;;;;;;;;;;5002132;28;20061;-84
2023/10/07 08:00:44;;;;;;;12.27;4.97;;;665.80;1459.20;;;;;;4983260;28;20034;-85
2023/10/07 08:03:11;;;;;;;10.23;4.78;;;640.80;1484.80;;;;;;4999112;28;20469;-84
2023/10/07 08:05:41;;;;;;;23.20;12.80;;;615.30;1484.80;;;;;;4996139;28;20074;-82
2023/10/07 08:08:19;;;;;;;12.98;6.30;;;615.10;1510.40;;;;;;4997584;28;20058;-83
2023/10/07 08:10:49;;;;;;;12.75;6.18;;;614.80;1510.40;;;;;;4996482;28;20050;-83
2023/10/07 08:13:20;;;;;;;16.20;9.75;;;614.50;1561.60;;;;;;4997116;28;20503;-84
2023/10/07 08:15:48;;;;;;;18.65;8.55;;;614.50;1561.60;;;;;;4966318;28;20035;-82
2023/10/07 08:18:13;;;;;;;35.05;12.98;;;589.70;1587.20;;;;;;4962349;28;20035;-83
2023/10/07 08:20:44;;;;;;;31.40;13.02;;;589.70;1587.20;;;;;;4990379;28;20022;-83
2023/10/07 08:23:24;;;;;;;33.92;14.60;;;589.70;1587.20;;;;;;4996235;28;20030;-85
2023/10/07 08:25:55;;;;;;;36.40;21.20;;;614.40;1587.20;;;;;;4995955;28;20499;-82
2023/10/07 08:28:23;;;;;;;12.50;7.13;;;614.60;1561.60;;;;;;4980799;28;20026;-82
2023/10/07 08:30:50;;;;;;;12.70;6.90;;;;;;;;;;4976381;28;20038;-81
2023/10/07 08:33:22;;;;;;;78.28;43.88;;;615.10;1536.00;;;;;;4976705;28;20035;-83
2023/10/07 08:35:49;;;;;;;64.72;31.48;;;615.10;1536.00;;;;;;4981756;28;20500;-83
2023/10/07 08:38:37;;;;;;;28.73;18.17;;;614.90;1561.60;;;;;;4995884;28;20023;-82
2023/10/07 08:41:05;;;;;;;11.23;6.80;;;614.60;1561.60;;;;;;4995693;28;20038;-82
2023/10/07 08:43:43;;;;;;;53.45;28.92;;;614.90;1561.60;;;;;;4995874;28;20030;-83
2023/10/07 08:46:15;;;;;;;18.75;11.43;;;615.00;1561.60;;;;;;4996103;28;20045;-81
2023/10/07 08:48:57;;;;;;;63.13;36.78;;;615.00;1561.60;;;;;;4995670;28;20118;-82
2023/10/07 08:51:24;;;;;;;10.65;6.35;;;615.00;1561.60;;;;;;4995391;28;20477;-83
2023/10/07 08:54:09;;;;;;;8.88;5.78;;;640.10;1561.60;;;;;;5001733;28;20042;-82
2023/10/07 08:56:37;;;;;;;9.23;4.65;;;640.30;1510.40;;;;;;5004967;28;20030;-82
2023/10/07 08:59:12;;;;;;;6.93;4.13;;;640.30;1510.40;;;;;;5003122;28;20579;-82
2023/10/07 09:01:42;;;;;;;9.07;4.45;;;640.10;1536.00;;;;;;4981697;28;20437;-83
2023/10/07 09:04:08;;;;;;;10.40;4.53;;;640.30;1510.40;;;;;;4999649;28;20033;-82
2023/10/07 09:06:37;;;;;;;11.23;4.85;;;640.60;1536.00;;;;;;4999914;28;20022;-82
2023/10/07 09:09:06;;;;;;;35.80;18.83;;;665.60;1510.40;;;;;;4981909;28;20492;-82
2023/10/07 09:11:36;;;;;;;11.15;5.47;;;640.70;1510.40;;;;;;4980202;28;20073;-82
2023/10/07 09:14:18;;;;;;;8.10;3.50;;;665.80;1561.60;;;;;;5007351;28;20456;-82
2023/10/07 09:16:46;;;;;;;8.07;4.55;;;665.60;1510.40;;;;;;4987200;28;20523;-83
2023/10/07 09:19:19;;;;;;;14.00;9.10;;;640.70;1510.40;;;;;;4998938;28;20037;-83
2023/10/07 09:21:51;;;;;;;10.20;5.45;;;640.30;1561.60;;;;;;5003719;28;20030;-80
2023/10/07 09:24:26;;;;;;;7.10;4.22;;;640.50;1587.20;;;;;;4992513;28;20038;-82
2023/10/07 09:26:59;;;;;;;9.45;4.93;;;640.40;1715.20;;;;;;4981410;28;20030;-81
2023/10/07 09:29:27;;;;;;;8.85;4.93;;;640.20;1536.00;;;;;;4974358;28;20468;-83
2023/10/07 09:31:56;;;;;;;9.48;5.10;;;640.40;1510.40;;;;;;4986805;28;20049;-82
2023/10/07 09:34:59;;;;;;;13.38;4.97;;;640.40;1561.60;;;;;;4994678;28;20037;-81
2023/10/07 09:37:20;;;;;;;9.95;4.85;;;;;;;;;;4988761;28;20045;-82
2023/10/07 09:39:54;;;;;;;8.60;4.55;;;665.70;1510.40;;;;;;4994153;28;20050;-80
2023/10/07 09:42:26;;;;;;;10.35;4.30;;;665.60;1510.40;;;;;;5002543;28;20476;-81
2023/10/07 09:45:27;;;;;;;9.85;4.38;;;640.00;1510.40;;;;;;4997630;28;20380;-82
2023/10/07 09:47:46;;;;;;;9.52;4.28;;;640.00;1536.00;;;;;;5007991;28;20398;-79
2023/10/07 09:52:44;;;;;;;9.65;5.25;;;615.10;1561.60;;;;;;5013665;28;20030;-82
2023/10/07 09:55:47;;;;;;;8.20;4.43;;;615.10;1536.00;;;;;;4983902;28;20029;-81
2023/10/07 09:58:24;;;;;;;9.85;5.03;;;615.10;1561.60;;;;;;4934247;28;20046;-81
2023/10/07 10:01:06;;;;;;;9.30;5.50;;;640.40;1536.00;;;;;;4931487;29;20060;-82
2023/10/07 10:03:59;;;;;;;9.35;4.32;;;640.30;1561.60;;;;;;4915188;29;20036;-82
2023/10/07 10:07:05;;;;;;;8.93;4.68;;;640.40;1510.40;;;;;;4914686;29;20091;-82
2023/10/07 10:09:45;;;;;;;6.95;3.60;;;640.80;1510.40;;;;;;4896313;29;20038;-82
2023/10/07 10:12:27;;;;;;;6.97;3.90;;;640.80;1536.00;;;;;;4881074;29;20088;-82
2023/10/07 10:14:56;;;;;;;75.32;36.63;;;640.60;1510.40;;;;;;4895856;29;20466;-82
2023/10/07 10:17:54;;;;;;;116.18;50.20;;;640.60;1484.80;;;;;;4894697;29;20475;-81
2023/10/07 10:20:27;;;;;;;22.00;12.70;;;640.70;1484.80;;;;;;4876555;29;20583;-81
2023/10/07 10:23:00;;;;;;;8.75;4.10;;;640.80;1484.80;;;;;;4879368;29;20029;-82
2023/10/07 10:25:36;;;;;;;7.70;3.78;;;665.60;1510.40;;;;;;4881086;29;20053;-81
2023/10/07 10:28:08;;;;;;;7.03;4.13;;;665.80;1484.80;;;;;;4888546;29;20037;-81
2023/10/07 10:30:45;;;;;;;12.85;6.80;;;666.20;1484.80;;;;;;4891549;29;20051;-80
2023/10/07 10:33:24;;;;;;;32.40;20.63;;;691.20;1408.00;;;;;;4881138;29;20072;-81
2023/10/07 10:35:57;;;;;;;9.80;4.90;;;666.20;1408.00;;;;;;4893728;29;20041;-82
2023/10/07 10:38:45;;;;;;;7.93;4.65;;;691.20;1382.40;;;;;;4895219;29;20040;-82
2023/10/07 10:41:11;;;;;;;7.10;3.60;;;666.50;1382.40;;;;;;4913493;29;20040;-82
2023/10/07 10:43:37;;;;;;;7.35;4.57;;;691.50;1382.40;;;;;;4933688;29;20500;-82
2023/10/07 10:46:07;;;;;;;7.85;3.50;;;691.30;1382.40;;;;;;4917361;29;20035;-82
2023/10/07 10:48:38;;;;;;;7.15;3.83;;;691.30;1382.40;;;;;;4917647;29;20027;-81
2023/10/07 10:51:05;;;;;;;6.78;3.70;;;691.50;1356.80;;;;;;4931512;29;20074;-81
2023/10/07 10:53:35;;;;;;;7.88;4.40;;;691.20;1356.80;;;;;;4917938;29;20024;-80
2023/10/07 10:56:02;;;;;;;6.97;3.60;;;666.40;1356.80;;;;;;4925244;28;20046;-82
2023/10/07 10:58:28;;;;;;;43.17;25.67;;;691.20;1356.80;;;;;;4974423;28;20027;-82
2023/10/07 11:00:54;;;;;;;8.95;5.47;;;666.20;1356.80;;;;;;4974708;28;20031;-81
2023/10/07 11:03:23;;;;;;;9.90;3.63;;;665.80;1408.00;;;;;;4993419;28;20085;-81
2023/10/07 11:05:53;;;;;;;8.48;4.75;;;665.60;1408.00;;;;;;4992996;28;20061;-81
2023/10/07 11:08:23;;;;;;;5.38;3.10;;;665.90;1408.00;;;;;;4977734;28;20058;-80
2023/10/07 11:11:00;;;;;;;7.00;4.05;;;666.40;1356.80;;;;;;4995959;28;20175;-80
2023/10/07 11:13:28;;;;;;;10.75;7.10;;;691.70;1280.00;;;;;;5002471;28;20034;-80
2023/10/07 11:16:10;;;;;;;11.98;8.15;;;691.50;1305.60;;;;;;4965248;28;20457;-79
2023/10/07 11:18:41;;;;;;;6.72;3.55;;;691.50;1331.20;;;;;;4974403;28;20122;-80
2023/10/07 11:21:11;;;;;;;9.57;5.05;;;691.30;1331.20;;;;;;4974720;28;20120;-81
2023/10/07 11:23:47;;;;;;;7.57;3.85;;;666.40;1305.60;;;;;;5004185;28;20034;-80
2023/10/07 11:26:14;;;;;;;11.10;5.45;;;666.30;1305.60;;;;;;4979017;28;20038;-80
2023/10/07 11:28:41;;;;;;;8.50;4.65;;;691.20;1305.60;;;;;;5000378;28;20164;-80
2023/10/07 11:31:07;;;;;;;7.18;3.42;;;666.00;1280.00;;;;;;5006765;28;20496;-80
2023/10/07 11:33:34;;;;;;;7.43;3.33;;;666.20;1305.60;;;;;;5003441;28;20116;-79
2023/10/07 11:36:02;;;;;;;8.98;5.05;;;691.20;1305.60;;;;;;5001943;28;20384;-80
2023/10/07 11:38:33;;;;;;;10.45;6.03;;;691.30;1254.40;;;;;;4993296;28;20034;-80
2023/10/07 11:40:59;;;;;;;6.82;3.30;;;691.80;1228.80;;;;;;4984675;28;20123;-79
2023/10/07 11:43:29;;;;;;;6.53;3.53;;;691.80;1203.20;;;;;;4991135;28;20038;-79
2023/10/07 11:45:56;;;;;;;5.57;2.97;;;691.80;1203.20;;;;;;4972956;28;20038;-80
2023/10/07 11:48:24;;;;;;;5.40;2.97;;;692.10;1177.60;;;;;;4976879;28;20027;-77
2023/10/07 11:50:50;;;;;;;10.05;3.97;;;692.10;1203.20;;;;;;4988449;28;20085;-78
2023/10/07 11:53:19;;;;;;;5.80;3.05;;;717.10;1228.80;;;;;;4996337;28;20061;-80
2023/10/07 11:55:45;;;;;;;7.97;4.43;;;717.10;1177.60;;;;;;4996664;28;20034;-80
2023/10/07 11:58:15;;;;;;;7.72;3.40;;;717.00;1152.00;;;;;;4994390;28;20037;-80
2023/10/07 12:00:42;;;;;;;7.47;4.32;;;691.70;1152.00;;;;;;4977042;28;20023;-77
2023/10/07 12:03:08;;;;;;;8.65;3.67;;;691.80;1152.00;;;;;;4990952;28;20442;-78
2023/10/07 12:05:38;;;;;;;6.70;3.65;;;691.80;1177.60;;;;;;4996731;28;20030;-81
2023/10/07 12:08:04;;;;;;;8.32;4.22;;;691.70;1203.20;;;;;;5016526;28;20025;-80
2023/10/07 12:10:39;;;;;;;23.30;14.90;;;691.70;1177.60;;;;;;5000396;28;20038;-79
2023/10/07 12:13:11;;;;;;;;;;;691.40;1228.80;;;;;;4997163;28;20384;-78
2023/10/07 12:15:43;;;;;;;30.02;12.55;;;691.20;1203.20;;;;;;4995367;28;20275;-80
2023/10/07 12:18:19;;;;;;;32.15;18.70;;;666.40;1228.80;;;;;;4996299;28;20034;-79
2023/10/07 12:20:45;;;;;;;15.88;8.80;;;691.20;1203.20;;;;;;4997313;28;20190;-79
2023/10/07 12:23:11;;;;;;;13.77;7.75;;;691.30;1177.60;;;;;;5011752;28;20045;-79
2023/10/07 12:25:41;;;;;;;35.78;21.33;;;691.20;1177.60;;;;;;5015254;28;20052;-79
2023/10/07 12:28:08;;;;;;;9.38;5.75;;;666.50;1228.80;;;;;;5015322;28;20034;-79
2023/10/07 12:30:34;;;;;;;14.20;9.68;;;691.40;1203.20;;;;;;4997825;28;20491;-79
2023/10/07 12:33:02;;;;;;;11.90;7.57;;;691.20;1228.80;;;;;;5002847;28;20061;-80
2023/10/07 12:35:34;;;;;;;7.63;3.40;;;691.30;1228.80;;;;;;4995327;28;20034;-80
2023/10/07 12:38:00;;;;;;;8.18;4.13;;;666.50;1203.20;;;;;;4993405;28;20159;-79
2023/10/07 12:40:30;;;;;;;6.43;3.33;;;666.50;1177.60;;;;;;4994304;28;20058;-79
2023/10/07 12:43:01;;;;;;;9.95;4.90;;;666.50;1177.60;;;;;;4995403;28;20058;-78
2023/10/07 12:45:26;;;;;;;55.85;26.42;;;666.50;1203.20;;;;;;4976136;28;20473;-79
2023/10/07 12:47:54;;;;;;;19.92;10.57;;;666.50;1228.80;;;;;;4994836;28;20085;-78
2023/10/07 12:50:29;;;;;;;9.43;5.25;;;666.20;1228.80;;;;;;4995575;28;20556;-77
2023/10/07 12:52:57;;;;;;;10.90;6.35;;;691.20;1228.80;;;;;;4993898;28;20046;-79
2023/10/07 12:55:32;;;;;;;9.75;4.75;;;666.40;1203.20;;;;;;4992993;28;20030;-78
2023/10/07 12:58:05;;;;;;;6.60;4.03;;;666.20;1228.80;;;;;;4975691;28;20031;-78
2023/10/07 13:00:33;;;;;;;8.20;3.00;;;691.20;1203.20;;;;;;4971631;28;20069;-78
2023/10/07 13:03:05;;;;;;;6.13;3.15;;;;;;;;;;4990485;28;20437;-78
2023/10/07 13:05:45;;;;;;;9.80;5.53;;;716.80;1177.60;;;;;;4991457;28;20026;-80
2023/10/07 13:08:18;;;;;;;8.05;3.50;;;692.10;1126.40;;;;;;4993828;28;20046;-79
2023/10/07 13:10:45;;;;;;;6.85;4.43;;;716.80;1152.00;;;;;;4978325;28;20053;-76
2023/10/07 13:13:14;;;;;;;13.05;6.15;;;717.30;1152.00;;;;;;4994478;28;20038;-78
2023/10/07 13:15:45;;;;;;;7.75;3.60;;;;;;;;;;4993599;28;20036;-79
2023/10/07 13:18:13;;;;;;;5.80;3.00;;;742.40;1126.40;;;;;;4991659;28;20409;-79
2023/10/07 13:20:38;;;;;;;17.88;10.80;;;742.40;1152.00;;;;;;4994457;28;20030;-78
2023/10/07 13:23:05;;;;;;;23.67;15.48;;;717.30;1152.00;;;;;;4977839;28;20026;-78
2023/10/07 13:25:34;;;;;;;12.20;7.63;;;716.80;1152.00;;;;;;4976903;28;20045;-78
2023/10/07 13:28:01;;;;;;;12.07;6.65;;;691.90;1152.00;;;;;;4995289;28;20038;-79
2023/10/07 13:30:29;;;;;;;9.70;6.43;;;692.00;1126.40;;;;;;4977044;28;20443;-78
2023/10/07 13:32:55;;;;;;;8.98;4.88;;;692.00;1126.40;;;;;;4997717;28;20037;-79
2023/10/07 13:35:27;;;;;;;6.50;4.10;;;692.00;1126.40;;;;;;4996443;28;20109;-79
2023/10/07 13:37:57;;;;;;;7.30;4.00;;;716.90;1126.40;;;;;;4977182;28;20158;-78
2023/10/07 13:40:24;;;;;;;6.97;3.80;;;692.00;1100.80;;;;;;4976491;28;20048;-81